Time;durP1;ratioP1;P1;durP2;ratioP2;P2;SDS_P1;SDS_P2;PMS_P1;PMS_P2;Temp;Humidity;BMP_temperature;BMP_pressure;BME280_temperature;BME280_humidity;BME280_pressure;Samples;Min_cycle;Max_cycle;Signal;HPM_P1;HPM_P2
2022/11/16 00:03:03;;;;;;;12.73;8.20;;;11.80;98.10;;;;;;20923464;28;20207;-72
2022/11/16 00:13:05;;;;;;;10.33;7.97;;;11.80;98.50;;;;;;20922402;28;20236;-73
2022/11/16 00:23:06;;;;;;;11.23;8.17;;;11.80;98.80;;;;;;20921515;28;20214;-73
2022/11/16 00:33:14;;;;;;;12.87;9.10;;;11.60;99.50;;;;;;20920762;28;20242;-73
2022/11/16 00:43:15;;;;;;;15.70;9.90;;;11.60;99.90;;;;;;20919992;28;20667;-73
2022/11/16 00:53:19;;;;;;;20.33;9.87;;;11.60;99.90;;;;;;20919181;28;20263;-73
2022/11/16 01:03:21;;;;;;;18.27;9.80;;;11.50;99.90;;;;;;20918726;28;20232;-73
2022/11/16 01:13:22;;;;;;;18.53;10.07;;;11.40;99.90;;;;;;20917365;28;20231;-73
2022/11/16 01:23:24;;;;;;;17.10;10.27;;;11.50;99.90;;;;;;20860141;28;20217;-73
2022/11/16 01:33:27;;;;;;;15.93;9.83;;;11.50;99.90;;;;;;20832004;28;20608;-73
2022/11/16 01:43:58;;;;;;;15.93;10.90;;;11.40;99.90;;;;;;20832902;28;20251;-73
2022/11/16 01:54:03;;;;;;;16.33;10.20;;;11.50;99.90;;;;;;20832037;28;20591;-73
2022/11/16 02:04:05;;;;;;;15.13;10.07;;;11.50;99.90;;;;;;20831462;28;20239;-73
2022/11/16 02:14:30;;;;;;;16.40;9.67;;;11.40;99.90;;;;;;20831006;28;20278;-72
2022/11/16 02:25:09;;;;;;;14.80;10.00;;;11.40;99.90;;;;;;20830294;28;20571;-73
2022/11/16 02:35:23;;;;;;;17.77;9.93;;;11.40;99.90;;;;;;20829991;28;20711;-73
2022/11/16 02:45:28;;;;;;;16.33;10.93;;;11.40;99.90;;;;;;20829898;28;20226;-73
2022/11/16 02:55:33;;;;;;;15.63;10.13;;;11.40;99.90;;;;;;20829185;28;20217;-73
2022/11/16 03:05:43;;;;;;;17.77;11.70;;;11.30;99.90;;;;;;20828699;28;20596;-73
2022/11/16 03:15:47;;;;;;;18.53;12.23;;;11.40;99.90;;;;;;20843426;28;20213;-73
2022/11/16 03:25:54;;;;;;;17.80;11.80;;;11.30;99.90;;;;;;20841045;28;20283;-72
2022/11/16 03:36:13;;;;;;;16.87;12.17;;;11.40;99.90;;;;;;20841399;28;20200;-73
2022/11/16 03:46:16;;;;;;;15.47;11.73;;;11.40;99.90;;;;;;20842366;28;20242;-73
2022/11/16 03:56:17;;;;;;;21.07;13.27;;;12.80;99.90;;;;;;20841497;28;20203;-72
2022/11/16 04:47:48;;;;;;;22.00;14.97;;;11.30;99.90;;;;;;20837502;28;20239;-72
2022/11/16 04:57:50;;;;;;;21.87;15.40;;;11.30;99.90;;;;;;20838001;28;20227;-73
2022/11/16 05:07:52;;;;;;;22.47;15.30;;;11.30;99.90;;;;;;20835599;28;20236;-73
2022/11/16 05:17:54;;;;;;;24.80;16.90;;;11.30;99.90;;;;;;20833865;28;20302;-73
2022/11/16 05:27:56;;;;;;;24.50;16.53;;;11.30;99.90;;;;;;20830165;28;20247;-73
2022/11/16 05:37:57;;;;;;;27.00;17.73;;;11.20;99.90;;;;;;20831143;28;20211;-73
2022/11/16 05:47:59;;;;;;;31.33;18.13;;;11.20;99.90;;;;;;20832669;28;20243;-73
2022/11/16 05:58:01;;;;;;;23.37;16.30;;;11.30;99.90;;;;;;20886083;28;20206;-73
2022/11/16 06:08:02;;;;;;;24.60;17.43;;;11.30;99.90;;;;;;20913433;28;20235;-73
2022/11/16 06:18:05;;;;;;;25.47;17.60;;;11.30;99.90;;;;;;20911615;28;20709;-72
2022/11/16 06:30:14;;;;;;;24.27;17.03;;;11.30;99.90;;;;;;21068167;28;20571;-73
2022/11/16 06:40:16;;;;;;;26.43;17.53;;;11.30;99.90;;;;;;21066897;28;20614;-75
2022/11/16 06:50:18;;;;;;;25.37;16.80;;;11.30;99.90;;;;;;21064403;28;20221;-73
2022/11/16 07:00:20;;;;;;;24.87;16.97;;;11.30;99.90;;;;;;21064933;28;20585;-73
2022/11/16 07:10:24;;;;;;;24.70;17.30;;;11.40;99.90;;;;;;21063965;28;20658;-73
2022/11/16 07:20:25;;;;;;;23.67;17.00;;;11.40;99.90;;;;;;21051791;28;20624;-72
2022/11/16 07:30:27;;;;;;;27.33;18.03;;;11.40;99.90;;;;;;20957729;28;20249;-73
2022/11/16 07:40:29;;;;;;;23.47;16.73;;;11.40;99.90;;;;;;20927829;28;20210;-72
2022/11/16 07:50:30;;;;;;;27.20;17.33;;;11.50;99.90;;;;;;20921563;28;20583;-72
2022/11/16 08:00:32;;;;;;;26.83;18.10;;;11.50;99.90;;;;;;20921022;28;20233;-72
2022/11/16 08:10:34;;;;;;;27.83;18.33;;;11.60;99.90;;;;;;20920237;28;20225;-72
2022/11/16 08:20:35;;;;;;;28.30;17.93;;;11.60;99.90;;;;;;20919349;28;20241;-72
2022/11/16 08:30:38;;;;;;;24.67;16.17;;;11.70;99.90;;;;;;20919265;28;20210;-72
2022/11/16 08:40:40;;;;;;;24.20;15.27;;;11.90;99.90;;;;;;20918080;28;20233;-73
2022/11/16 08:50:42;;;;;;;18.90;13.73;;;12.10;99.90;;;;;;20916410;28;20214;-72
2022/11/16 09:01:23;;;;;;;18.07;13.03;;;12.30;99.90;;;;;;20917805;28;20233;-73
2022/11/16 09:11:25;;;;;;;16.70;10.73;;;12.30;99.90;;;;;;20915534;28;20660;-72
2022/11/16 09:21:28;;;;;;;11.60;8.47;;;12.60;99.90;;;;;;20914140;28;20242;-72
2022/11/16 09:31:33;;;;;;;15.80;5.60;;;12.60;99.90;;;;;;20911810;28;20204;-72
2022/11/16 09:42:07;;;;;;;4.30;2.80;;;12.90;99.90;;;;;;20913368;28;20244;-72
2022/11/16 09:52:40;;;;;;;5.03;2.57;;;13.50;99.90;;;;;;20912729;28;20202;-73
2022/11/16 10:02:46;;;;;;;5.37;2.47;;;13.50;99.90;;;;;;20906672;28;20241;-72
2022/11/16 10:12:58;;;;;;;2.37;1.83;;;13.50;99.90;;;;;;20911988;28;20201;-72
2022/11/16 10:23:26;;;;;;;3.13;2.00;;;13.60;99.90;;;;;;20910927;28;20243;-72
2022/11/16 10:33:34;;;;;;;2.87;2.00;;;13.70;99.90;;;;;;20910956;28;20204;-73
2022/11/16 10:43:37;;;;;;;4.10;1.90;;;13.80;99.90;;;;;;20909978;28;20243;-72
2022/11/16 10:53:42;;;;;;;3.13;1.80;;;13.80;99.90;;;;;;20909996;28;20202;-73
2022/11/16 11:03:44;;;;;;;3.30;1.73;;;13.80;99.90;;;;;;20909709;28;20235;-73
2022/11/16 11:13:45;;;;;;;3.27;1.93;;;13.70;99.90;;;;;;20920226;28;20207;-73
2022/11/16 11:23:54;;;;;;;3.47;2.60;;;13.40;99.90;;;;;;20923248;28;20247;-72
2022/11/16 11:34:37;;;;;;;4.10;1.70;;;13.60;99.90;;;;;;20920254;28;20212;-73
2022/11/16 11:44:43;;;;;;;6.83;3.47;;;14.00;99.70;;;;;;20921606;28;20595;-73
2022/11/16 11:54:46;;;;;;;7.03;2.60;;;14.70;97.30;;;;;;20917694;28;20658;-73
2022/11/16 12:05:10;;;;;;;4.40;1.70;;;14.80;97.00;;;;;;20920424;28;20278;-73
2022/11/16 12:15:23;;;;;;;3.90;1.87;;;15.30;96.00;;;;;;20920202;28;20278;-73
2022/11/16 12:25:45;;;;;;;6.33;1.70;;;15.50;94.80;;;;;;20917079;28;20274;-73
2022/11/16 12:36:01;;;;;;;8.07;1.80;;;15.50;94.00;;;;;;20918940;28;20208;-73
2022/11/16 12:46:11;;;;;;;8.27;1.70;;;15.60;92.00;;;;;;20918565;28;20322;-72
2022/11/16 12:56:13;;;;;;;6.23;1.70;;;15.00;90.60;;;;;;20917864;28;20211;-74
2022/11/16 13:06:19;;;;;;;7.37;2.10;;;14.80;90.70;;;;;;20916590;28;20691;-73
2022/11/16 13:16:23;;;;;;;4.10;1.40;;;14.70;90.60;;;;;;20915926;28;20212;-73
2022/11/16 13:27:07;;;;;;;7.23;1.50;;;14.70;90.50;;;;;;20913623;28;20258;-73
2022/11/16 13:37:37;;;;;;;8.73;2.83;;;14.50;90.40;;;;;;20876521;28;20211;-74
2022/11/16 13:47:39;;;;;;;8.03;3.90;;;14.30;91.00;;;;;;20912980;28;20334;-72
2022/11/16 13:57:49;;;;;;;10.10;4.47;;;14.30;91.40;;;;;;20910668;28;20423;-73
2022/11/16 14:07:51;;;;;;;12.97;2.10;;;14.20;91.70;;;;;;20911733;28;20234;-71
2022/11/16 14:18:15;;;;;;;6.80;2.30;;;14.50;92.00;;;;;;20910355;28;20215;-74
2022/11/16 14:28:41;;;;;;;8.00;2.07;;;14.70;92.20;;;;;;20910789;28;20246;-71
2022/11/16 14:38:44;;;;;;;19.17;3.60;;;14.60;92.30;;;;;;20910309;28;20218;-70
2022/11/16 14:48:46;;;;;;;11.87;2.93;;;14.30;92.60;;;;;;20921512;28;20271;-70
2022/11/16 14:58:59;;;;;;;9.30;2.80;;;14.30;92.90;;;;;;20927153;28;20236;-71
2022/11/16 15:09:03;;;;;;;8.93;2.13;;;14.10;92.90;;;;;;20925345;28;20723;-72
2022/11/16 15:19:11;;;;;;;7.07;2.50;;;14.00;92.90;;;;;;20924920;28;20212;-76
2022/11/16 15:29:18;;;;;;;9.83;3.27;;;13.90;93.20;;;;;;20922014;28;20243;-71
2022/11/16 15:39:22;;;;;;;12.73;4.00;;;13.60;93.50;;;;;;20957765;28;20212;-72
2022/11/16 15:49:27;;;;;;;8.90;2.67;;;13.50;93.90;;;;;;20925376;28;20243;-77
2022/11/16 15:59:32;;;;;;;8.20;2.97;;;13.20;94.50;;;;;;21005304;28;20203;-72
2022/11/16 16:09:40;;;;;;;11.20;3.40;;;13.00;94.80;;;;;;21003902;28;20232;-73
2022/11/16 16:20:02;;;;;;;8.40;2.30;;;12.90;95.50;;;;;;21036661;28;20206;-71
2022/11/16 16:30:06;;;;;;;6.53;2.50;;;12.80;95.80;;;;;;21085093;28;20277;-71
2022/11/16 16:40:08;;;;;;;9.90;3.20;;;12.80;96.10;;;;;;21079583;28;20200;-74
2022/11/16 16:50:10;;;;;;;9.00;3.07;;;12.80;96.40;;;;;;21001199;28;20238;-75
2022/11/16 17:00:12;;;;;;;14.23;4.63;;;12.80;96.50;;;;;;21000076;28;20729;-76
2022/11/16 17:10:14;;;;;;;7.53;3.10;;;12.80;96.40;;;;;;21000447;28;20753;-76
2022/11/16 17:20:16;;;;;;;7.83;3.00;;;12.80;96.70;;;;;;20998706;28;20216;-73
2022/11/16 17:30:17;;;;;;;7.97;2.87;;;12.80;96.70;;;;;;20998750;28;20235;-76
2022/11/16 17:40:20;;;;;;;11.00;3.50;;;12.80;96.60;;;;;;20997271;28;20239;-76
2022/11/16 17:50:22;;;;;;;8.13;3.53;;;12.70;97.00;;;;;;20995615;28;20235;-75
2022/11/16 18:00:23;;;;;;;10.27;4.23;;;12.60;97.20;;;;;;20995536;28;20216;-76
2022/11/16 18:10:25;;;;;;;12.87;6.50;;;12.60;97.40;;;;;;20994091;28;20231;-76
2022/11/16 18:20:28;;;;;;;10.90;5.03;;;12.60;97.70;;;;;;20988879;28;20219;-72
2022/11/16 18:30:30;;;;;;;6.83;4.50;;;12.50;98.10;;;;;;20989053;28;20592;-72
2022/11/16 18:40:31;;;;;;;11.43;4.60;;;12.40;98.10;;;;;;20993023;28;20221;-74
2022/11/16 18:50:33;;;;;;;18.40;5.07;;;12.30;98.40;;;;;;20992613;28;20229;-72
2022/11/16 19:00:35;;;;;;;16.63;4.40;;;12.10;98.60;;;;;;20991799;28;20217;-72
2022/11/16 19:10:37;;;;;;;10.80;4.47;;;12.10;98.60;;;;;;20979962;28;20237;-70
2022/11/16 19:20:39;;;;;;;9.80;4.83;;;12.10;98.80;;;;;;20982945;28;20264;-73
2022/11/16 19:30:41;;;;;;;11.47;5.57;;;12.10;99.10;;;;;;20946446;28;20232;-79
2022/11/16 19:40:42;;;;;;;13.53;7.20;;;12.10;99.20;;;;;;20927852;28;20217;-77
2022/11/16 19:50:44;;;;;;;13.20;6.30;;;12.00;99.30;;;;;;20998652;28;20239;-76
2022/11/16 20:00:45;;;;;;;14.67;6.00;;;12.10;99.70;;;;;;21006085;28;20210;-74
2022/11/16 20:10:47;;;;;;;11.60;5.80;;;12.00;99.50;;;;;;21004893;28;20595;-74
2022/11/16 20:20:49;;;;;;;7.60;4.60;;;12.10;99.90;;;;;;20957251;28;20684;-72
2022/11/16 20:30:50;;;;;;;8.87;5.00;;;12.10;99.80;;;;;;20915451;28;20268;-72
2022/11/16 20:40:52;;;;;;;10.67;5.73;;;12.00;99.70;;;;;;20917541;28;20239;-72
2022/11/16 20:50:54;;;;;;;13.00;5.60;;;12.00;99.90;;;;;;20948874;28;20280;-71
2022/11/16 21:00:59;;;;;;;8.43;5.63;;;12.10;99.90;;;;;;20996463;28;20574;-73
2022/11/16 21:11:07;;;;;;;15.10;8.03;;;12.10;99.90;;;;;;20997901;28;20705;-73
2022/11/16 21:21:12;;;;;;;10.63;6.17;;;12.00;99.80;;;;;;20996653;28;20268;-72
2022/11/16 21:31:25;;;;;;;13.70;6.93;;;11.80;99.90;;;;;;20995951;28;20262;-73
2022/11/16 21:41:27;;;;;;;12.47;7.07;;;11.70;99.90;;;;;;20995594;28;20551;-72
2022/11/16 21:51:29;;;;;;;11.53;7.10;;;11.70;99.90;;;;;;20994274;28;20273;-73
2022/11/16 22:01:58;;;;;;;16.80;7.90;;;11.60;99.90;;;;;;20994255;28;20298;-73
2022/11/16 22:11:52;;;;;;;18.03;7.60;;;11.70;99.90;;;;;;20993842;28;20212;-72
2022/11/16 22:21:54;;;;;;;14.23;7.47;;;11.60;99.90;;;;;;20952065;28;20237;-73
2022/11/16 22:31:56;;;;;;;11.70;6.43;;;11.60;99.90;;;;;;20906734;28;20218;-74
2022/11/16 22:41:58;;;;;;;11.20;6.80;;;11.60;99.90;;;;;;20909808;28;20681;-72
2022/11/16 22:51:59;;;;;;;11.20;6.97;;;11.60;99.90;;;;;;20910773;28;20577;-73
2022/11/16 23:02:04;;;;;;;14.67;6.80;;;11.50;99.90;;;;;;20911182;28;20750;-73
2022/11/16 23:32:47;;;;;;;12.07;6.57;;;11.20;99.90;;;;;;21089288;28;20706;-72
2022/11/16 23:53:11;;;;;;;13.47;6.73;;;10.90;99.90;;;;;;21090311;28;20567;-72
